This is the latest recevied weather packets stored in our database for station/object KD4WLE. If no packets are shown the sender has not sent any weather packets the latest 10 day(s).
| Time | Temp. | Humidity | Pressure | Rain* | Wind** | Luminosity | Snow |
|---|---|---|---|---|---|---|---|
| 1777650721 | 29.44° C | 68% | 1012.8 hPa | 0 mm | - | 424 W/m² | - |
| 1777650418 | 29.44° C | 67% | 1012.7 hPa | 0 mm | - | 160 W/m² | - |
| 1777650115 | 30° C | 68% | 1012.8 hPa | 0 mm | - | 733 W/m² | - |
| 1777649811 | 28.89° C | 67% | 1012.8 hPa | 0 mm | - | 788 W/m² | - |
| 1777649094 | 30.56° C | 65% | 1012.9 hPa | 0 mm | - | 735 W/m² | - |
| 1777648791 | 30.56° C | 65% | 1012.9 hPa | 0 mm | - | 735 W/m² | - |
| 1777648488 | 29.44° C | 68% | 1012.9 hPa | 0 mm | - | 709 W/m² | - |
| 1777648185 | 29.44° C | 70% | 1013.2 hPa | 0 mm | - | 676 W/m² | - |
| 1777647880 | 29.44° C | 71% | 1012.8 hPa | 0 mm | - | 648 W/m² | - |
| 1777647577 | 30° C | 70% | 1012.6 hPa | 0 mm | - | 640 W/m² | - |
| 1777647273 | 29.44° C | 71% | 1012.8 hPa | 0 mm | - | 624 W/m² | - |
| 1777646544 | 28.89° C | 72% | 1013 hPa | 0 mm | - | 555 W/m² | - |
| 1777646241 | 28.89° C | 72% | 1013 hPa | 0 mm | - | 555 W/m² | - |
| 1777645938 | 28.33° C | 74% | 1012.8 hPa | 0 mm | - | 549 W/m² | - |
| 1777645635 | 28.33° C | 75% | 1012.7 hPa | 0 mm | - | 534 W/m² | - |
| 1777645330 | 28.89° C | 77% | 1012.9 hPa | 0 mm | - | 521 W/m² | - |
| 1777645026 | 28.89° C | 78% | 1012.9 hPa | 0 mm | - | 512 W/m² | - |
| 1777644724 | 27.78° C | 80% | 1012.9 hPa | 0 mm | - | 500 W/m² | - |
| 1777644421 | 27.78° C | 80% | 1013 hPa | 0 mm | - | 481 W/m² | - |
| 1777644117 | 27.22° C | 82% | 1013 hPa | 0 mm | - | 468 W/m² | - |
| 1777643813 | 27.22° C | 83% | 1012.9 hPa | 0 mm | - | 453 W/m² | - |
| 1777643511 | 27.22° C | 83% | 1012.9 hPa | 0 mm | - | 433 W/m² | - |
| 1777643207 | 27.22° C | 82% | 1013 hPa | 0 mm | - | 422 W/m² | - |
| 1777642904 | 26.67° C | 84% | 1012.9 hPa | 0 mm | - | 370 W/m² | - |
| 1777642601 | 26.11° C | 86% | 1013 hPa | 0 mm | - | 378 W/m² | - |
* Rain latest hour (hover to see other rain measurements)
** Current wind speed in m/s (hover to see current wind gust speed)